Time;durP1;ratioP1;P1;durP2;ratioP2;P2;SDS_P1;SDS_P2;PMS_P1;PMS_P2;Temp;Humidity;BMP_temperature;BMP_pressure;BME280_temperature;BME280_humidity;BME280_pressure;Samples;Min_cycle;Max_cycle;Signal;HPM_P1;HPM_P2
2021/01/14 00:00:42;;;;;;;27.07;19.23;;;1.50;95.10;;;;;;5152338;27;20175;-79
2021/01/14 00:03:11;;;;;;;28.33;20.08;;;1.60;94.90;;;;;;5150970;27;20646;-79
2021/01/14 00:05:41;;;;;;;33.90;22.25;;;1.60;94.90;;;;;;5151807;27;20175;-80
2021/01/14 00:08:07;;;;;;;29.63;20.92;;;1.60;95.00;;;;;;5154560;27;20195;-80
2021/01/14 00:10:36;;;;;;;30.17;20.63;;;1.60;94.90;;;;;;5133239;27;20543;-80
2021/01/14 00:13:01;;;;;;;29.08;19.08;;;1.60;94.90;;;;;;5153846;27;20154;-80
2021/01/14 00:15:27;;;;;;;26.87;20.20;;;1.60;95.10;;;;;;5152484;27;20184;-80
2021/01/14 00:17:53;;;;;;;28.90;18.70;;;1.60;95.20;;;;;;5152545;27;20361;-80
2021/01/14 00:20:20;;;;;;;31.10;19.80;;;1.60;95.20;;;;;;5152164;27;20191;-80
2021/01/14 00:22:46;;;;;;;26.25;19.00;;;1.50;95.30;;;;;;5134161;27;20205;-80
2021/01/14 00:25:14;;;;;;;28.50;21.15;;;1.50;95.60;;;;;;5151777;27;20183;-80
2021/01/14 00:27:40;;;;;;;26.77;17.55;;;1.50;95.40;;;;;;5131911;27;20655;-80
2021/01/14 00:30:11;;;;;;;29.83;20.50;;;1.50;95.40;;;;;;5152355;27;20217;-80
2021/01/14 00:32:36;;;;;;;28.95;19.42;;;1.50;95.30;;;;;;5153398;27;20172;-80
2021/01/14 00:35:03;;;;;;;28.17;19.13;;;1.50;95.50;;;;;;5151675;27;20175;-80
2021/01/14 00:40:14;;;;;;;25.38;17.27;;;1.50;95.50;;;;;;5131587;28;20211;-80
2021/01/14 00:42:39;;;;;;;25.75;17.02;;;1.60;95.10;;;;;;5130923;28;20199;-81
2021/01/14 00:45:06;;;;;;;24.17;17.57;;;1.60;95.40;;;;;;5131235;28;20779;-80
2021/01/14 00:47:35;;;;;;;27.13;17.75;;;1.60;95.00;;;;;;5111968;28;20217;-80
2021/01/14 00:50:01;;;;;;;23.58;16.50;;;1.60;95.00;;;;;;5128055;28;20364;-80
2021/01/14 00:52:27;;;;;;;25.63;19.52;;;1.60;95.10;;;;;;5131640;28;20519;-80
2021/01/14 00:54:53;;;;;;;23.33;16.37;;;1.70;94.70;;;;;;5131313;28;20191;-80
2021/01/14 00:57:18;;;;;;;22.30;16.00;;;1.60;94.90;;;;;;5131370;28;20268;-80
2021/01/14 00:59:44;;;;;;;25.00;17.17;;;1.50;95.30;;;;;;5132831;28;20192;-80
2021/01/14 01:02:13;;;;;;;27.90;21.23;;;1.50;95.10;;;;;;5109583;28;20190;-80
2021/01/14 01:04:40;;;;;;;31.45;19.48;;;1.70;94.80;;;;;;5129968;28;20198;-80
2021/01/14 01:07:06;;;;;;;28.92;20.35;;;1.60;95.00;;;;;;5129652;28;20176;-80
2021/01/14 01:09:32;;;;;;;23.30;17.70;;;1.50;95.20;;;;;;5128653;28;20192;-80
2021/01/14 01:11:57;;;;;;;26.20;17.00;;;1.60;95.10;;;;;;5109979;28;20218;-80
2021/01/14 01:14:23;;;;;;;25.63;17.90;;;1.60;95.10;;;;;;5109996;28;20697;-80
2021/01/14 01:16:53;;;;;;;25.97;17.33;;;1.60;94.90;;;;;;5128343;28;20212;-80
2021/01/14 01:19:19;;;;;;;25.10;17.55;;;1.60;94.80;;;;;;5128111;28;20187;-80
2021/01/14 01:21:44;;;;;;;26.50;17.40;;;1.50;95.10;;;;;;5133878;28;20266;-80
2021/01/14 01:24:11;;;;;;;24.50;16.70;;;1.60;95.00;;;;;;5114575;28;20198;-79
2021/01/14 01:26:36;;;;;;;23.30;16.10;;;1.50;94.80;;;;;;5133185;28;20188;-79
2021/01/14 01:29:03;;;;;;;24.90;18.00;;;1.40;94.90;;;;;;5114003;28;20252;-80
2021/01/14 01:31:28;;;;;;;22.13;15.82;;;1.40;95.10;;;;;;5130518;28;20188;-79
2021/01/14 01:33:55;;;;;;;23.73;18.07;;;1.20;95.40;;;;;;5131192;28;20202;-79
2021/01/14 01:36:21;;;;;;;21.70;16.15;;;1.20;95.80;;;;;;5149566;27;20271;-80
2021/01/14 01:38:46;;;;;;;26.73;20.30;;;1.10;95.70;;;;;;5132935;27;20175;-79
2021/01/14 01:41:12;;;;;;;26.43;17.97;;;1.10;95.80;;;;;;5151282;27;20399;-80
2021/01/14 01:43:38;;;;;;;28.43;19.03;;;1.10;95.80;;;;;;5148727;27;20152;-79
2021/01/14 01:46:04;;;;;;;26.77;17.73;;;1.10;95.70;;;;;;5148567;27;20209;-79
2021/01/14 01:48:31;;;;;;;24.05;17.98;;;1.10;95.40;;;;;;5151665;28;20179;-79
2021/01/14 01:50:59;;;;;;;34.03;22.05;;;1.10;95.50;;;;;;5132659;28;20638;-79
2021/01/14 01:53:25;;;;;;;28.50;19.52;;;1.10;95.40;;;;;;5151659;28;20159;-80
2021/01/14 01:55:52;;;;;;;23.60;17.25;;;1.10;95.50;;;;;;5150344;28;20211;-80
2021/01/14 01:58:22;;;;;;;26.17;18.13;;;1.00;95.00;;;;;;5151241;28;20194;-80
2021/01/14 02:00:48;;;;;;;25.40;15.65;;;1.10;94.90;;;;;;5149723;28;20228;-80
2021/01/14 02:03:14;;;;;;;24.58;17.40;;;1.00;95.00;;;;;;5129820;28;20184;-80
2021/01/14 02:05:40;;;;;;;22.47;16.43;;;1.10;94.70;;;;;;5131472;28;20199;-80
2021/01/14 02:08:08;;;;;;;21.20;15.70;;;1.10;94.80;;;;;;5130674;27;20191;-80
2021/01/14 02:10:40;;;;;;;31.73;21.08;;;1.20;94.40;;;;;;5132339;28;20657;-79
2021/01/14 02:13:09;;;;;;;22.80;16.17;;;1.20;94.20;;;;;;5149671;28;20246;-80
2021/01/14 02:15:35;;;;;;;24.33;17.90;;;1.20;94.40;;;;;;5148333;28;20297;-80
2021/01/14 02:18:01;;;;;;;25.08;17.25;;;1.00;94.60;;;;;;5129943;28;20246;-80
2021/01/14 02:20:29;;;;;;;22.88;16.90;;;1.00;94.60;;;;;;5151878;28;20654;-80
2021/01/14 02:23:07;;;;;;;23.80;16.42;;;1.20;94.30;;;;;;5133855;28;20259;-80
2021/01/14 02:26:03;;;;;;;23.17;16.17;;;1.20;94.30;;;;;;5153359;28;20187;-80
2021/01/14 02:28:29;;;;;;;24.98;16.40;;;1.10;94.40;;;;;;5118728;28;20210;-80
2021/01/14 02:30:55;;;;;;;21.90;16.05;;;1.20;94.30;;;;;;5153748;28;20164;-80
2021/01/14 02:33:20;;;;;;;22.70;16.27;;;1.20;94.10;;;;;;5136353;27;20222;-80
2021/01/14 02:35:46;;;;;;;22.73;14.27;;;1.30;94.00;;;;;;5157221;27;20966;-80
2021/01/14 02:38:12;;;;;;;23.03;15.37;;;1.30;94.20;;;;;;5156664;27;20191;-80
2021/01/14 02:40:37;;;;;;;21.53;15.27;;;1.30;93.50;;;;;;5136879;27;20549;-80
2021/01/14 02:43:03;;;;;;;25.23;15.53;;;1.30;93.80;;;;;;5155511;27;20187;-80
2021/01/14 02:45:29;;;;;;;21.90;15.00;;;1.40;93.80;;;;;;5155179;27;20218;-80
2021/01/14 02:47:55;;;;;;;20.70;15.47;;;1.40;93.60;;;;;;5137408;27;20190;-80
2021/01/14 02:50:21;;;;;;;26.52;16.85;;;1.30;93.70;;;;;;5137197;27;20239;-80
2021/01/14 02:52:48;;;;;;;23.45;14.82;;;1.30;93.80;;;;;;5137038;27;20411;-80
2021/01/14 02:55:15;;;;;;;22.77;15.35;;;1.20;93.80;;;;;;5137198;27;20287;-80
2021/01/14 02:57:42;;;;;;;19.90;15.05;;;1.20;93.90;;;;;;5137053;27;20270;-80
2021/01/14 03:00:08;;;;;;;22.20;15.45;;;1.20;94.20;;;;;;5135853;27;20178;-81
2021/01/14 03:02:34;;;;;;;24.67;17.42;;;1.10;94.40;;;;;;5155183;27;20175;-80
2021/01/14 03:04:59;;;;;;;24.10;15.87;;;1.10;94.40;;;;;;5154066;27;20230;-80
2021/01/14 03:07:25;;;;;;;29.90;18.57;;;1.00;94.60;;;;;;5154849;27;20203;-80
2021/01/14 03:09:51;;;;;;;24.07;18.53;;;1.00;94.70;;;;;;5155338;27;20192;-80
2021/01/14 03:12:16;;;;;;;30.83;16.80;;;1.10;94.70;;;;;;5135916;27;20187;-80
2021/01/14 03:14:42;;;;;;;23.20;15.07;;;1.10;94.50;;;;;;5156072;27;20191;-80
2021/01/14 03:17:07;;;;;;;23.40;14.30;;;1.00;94.90;;;;;;5135711;27;20565;-80
2021/01/14 03:19:33;;;;;;;24.07;17.00;;;0.90;95.30;;;;;;5155159;27;20231;-80
2021/01/14 03:22:00;;;;;;;28.27;17.33;;;1.00;95.30;;;;;;5154784;27;20566;-80
2021/01/14 03:24:27;;;;;;;21.20;16.33;;;1.00;95.50;;;;;;5153128;27;20224;-80
2021/01/14 03:26:53;;;;;;;23.67;17.85;;;0.90;95.70;;;;;;5154342;27;20162;-80
2021/01/14 03:29:18;;;;;;;23.60;16.30;;;0.90;95.60;;;;;;5134903;27;20195;-80
2021/01/14 03:31:44;;;;;;;26.33;15.70;;;0.90;95.80;;;;;;5155711;27;20262;-81
2021/01/14 03:34:10;;;;;;;24.17;15.60;;;0.90;95.70;;;;;;5134970;27;20206;-80
2021/01/14 03:36:56;;;;;;;25.73;21.53;;;1.00;95.80;;;;;;5138698;27;20223;-80
2021/01/14 03:39:23;;;;;;;24.95;16.75;;;0.90;96.00;;;;;;5137871;27;20223;-81
2021/01/14 03:41:48;;;;;;;29.85;18.98;;;0.80;96.20;;;;;;5137667;27;20183;-80
2021/01/14 03:44:14;;;;;;;20.10;14.77;;;0.90;96.10;;;;;;5136924;27;20267;-80
2021/01/14 03:46:44;;;;;;;22.97;15.80;;;0.80;96.20;;;;;;5156388;27;20253;-80
2021/01/14 03:49:09;;;;;;;23.85;16.00;;;0.90;96.20;;;;;;5155522;27;20213;-80
2021/01/14 03:51:35;;;;;;;21.43;15.80;;;1.00;95.80;;;;;;5155296;27;20218;-80
2021/01/14 03:54:00;;;;;;;26.40;19.20;;;1.10;95.80;;;;;;5136912;27;20201;-80
2021/01/14 03:56:26;;;;;;;30.40;20.10;;;1.10;96.00;;;;;;5156768;27;20191;-80
2021/01/14 03:58:52;;;;;;;28.33;22.03;;;1.00;96.00;;;;;;5136264;27;20191;-80
2021/01/14 04:01:20;;;;;;;26.53;16.70;;;1.10;95.70;;;;;;5135779;27;20171;-80
2021/01/14 04:03:46;;;;;;;27.35;18.00;;;1.00;95.90;;;;;;5154067;27;20163;-80
2021/01/14 04:06:12;;;;;;;25.53;17.60;;;1.00;96.10;;;;;;5135088;27;20201;-80
2021/01/14 04:08:38;;;;;;;25.60;19.50;;;1.10;96.10;;;;;;5153552;27;20227;-80
2021/01/14 04:11:04;;;;;;;34.85;21.88;;;1.00;95.90;;;;;;5134934;27;20247;-80
2021/01/14 04:13:31;;;;;;;26.45;19.85;;;1.10;96.10;;;;;;5133611;27;20228;-80
2021/01/14 04:15:57;;;;;;;26.08;16.20;;;1.20;95.70;;;;;;5153284;27;20207;-80
2021/01/14 04:18:22;;;;;;;26.07;17.97;;;1.10;95.80;;;;;;5133975;27;20635;-80
2021/01/14 04:20:48;;;;;;;29.80;18.70;;;1.00;96.30;;;;;;5153810;27;20941;-80
2021/01/14 04:23:14;;;;;;;23.63;16.63;;;1.20;96.20;;;;;;5152502;27;20205;-80
2021/01/14 04:25:40;;;;;;;24.03;15.17;;;1.20;95.80;;;;;;5152920;27;20449;-79
2021/01/14 04:28:05;;;;;;;23.07;14.27;;;1.30;95.60;;;;;;5152352;27;20210;-79
2021/01/14 04:30:35;;;;;;;22.77;14.70;;;1.20;95.70;;;;;;5150862;27;20183;-80
2021/01/14 04:33:11;;;;;;;21.65;15.27;;;1.30;95.50;;;;;;5150342;27;20168;-80
2021/01/14 04:35:48;;;;;;;20.63;13.85;;;1.40;95.50;;;;;;5151161;27;20195;-80
2021/01/14 04:38:15;;;;;;;23.55;14.68;;;1.40;95.60;;;;;;5132324;27;20723;-80
2021/01/14 04:40:41;;;;;;;26.63;18.98;;;1.50;95.30;;;;;;5133373;27;20193;-80
2021/01/14 04:43:09;;;;;;;25.35;16.10;;;1.50;95.00;;;;;;5133422;27;20183;-80
2021/01/14 04:45:34;;;;;;;24.80;17.60;;;1.60;95.00;;;;;;5151777;27;20171;-80
2021/01/14 04:48:02;;;;;;;26.43;19.53;;;1.70;95.30;;;;;;5152377;27;20163;-80
2021/01/14 04:50:28;;;;;;;24.88;17.08;;;1.70;94.50;;;;;;5151465;27;20219;-80
2021/01/14 04:52:55;;;;;;;22.70;14.87;;;1.80;94.00;;;;;;5150728;27;20219;-80
2021/01/14 04:55:25;;;;;;;32.72;20.55;;;1.80;94.60;;;;;;5151251;27;20466;-80
2021/01/14 04:57:52;;;;;;;31.35;20.00;;;1.80;94.10;;;;;;5136407;27;20182;-80
2021/01/14 05:00:20;;;;;;;26.98;17.77;;;1.80;94.50;;;;;;5156339;27;20189;-80
2021/01/14 05:02:53;;;;;;;25.42;17.35;;;1.80;94.30;;;;;;5155024;27;20175;-81
2021/01/14 05:05:23;;;;;;;22.83;15.98;;;1.80;94.40;;;;;;5136205;27;20187;-80
2021/01/14 05:08:14;;;;;;;25.85;16.75;;;1.80;95.10;;;;;;5154027;27;20175;-80
2021/01/14 05:10:41;;;;;;;24.63;16.00;;;1.80;94.60;;;;;;5135495;27;20210;-81
2021/01/14 05:13:08;;;;;;;29.00;19.45;;;1.80;94.60;;;;;;5154240;27;20202;-80
2021/01/14 05:15:35;;;;;;;37.22;26.50;;;1.90;94.30;;;;;;5135267;27;20187;-80
2021/01/14 05:18:01;;;;;;;36.58;22.80;;;1.80;94.50;;;;;;5134883;27;20178;-80
2021/01/14 05:20:27;;;;;;;31.23;19.63;;;1.80;94.30;;;;;;5151935;27;20222;-80
2021/01/14 05:22:58;;;;;;;44.72;36.92;;;1.90;94.20;;;;;;5153366;27;20167;-80
2021/01/14 05:25:24;;;;;;;29.67;19.45;;;1.90;94.20;;;;;;5153560;27;20170;-80
2021/01/14 05:27:50;;;;;;;27.23;19.23;;;1.80;94.60;;;;;;5132808;27;20191;-80
2021/01/14 05:30:16;;;;;;;28.63;18.33;;;1.80;94.50;;;;;;5150770;27;20191;-80
2021/01/14 05:32:44;;;;;;;26.52;19.55;;;2.80;92.20;;;;;;5154548;27;20209;-79
2021/01/14 05:35:15;;;;;;;28.27;21.98;;;2.40;92.00;;;;;;5148871;27;20183;-79
2021/01/14 05:37:43;;;;;;;29.10;19.70;;;2.00;92.70;;;;;;5151144;27;20658;-79
2021/01/14 05:40:22;;;;;;;23.17;16.17;;;2.60;92.90;;;;;;5148319;27;20171;-80
2021/01/14 05:43:08;;;;;;;24.73;18.58;;;3.70;91.30;;;;;;5154151;27;20174;-80
2021/01/14 05:45:35;;;;;;;23.77;17.33;;;3.10;89.00;;;;;;5154284;27;20209;-80
2021/01/14 05:48:10;;;;;;;26.88;18.30;;;3.50;91.50;;;;;;5153468;28;20178;-80
2021/01/14 05:50:46;;;;;;;30.05;21.27;;;3.50;86.80;;;;;;5154181;28;20297;-79
2021/01/14 05:53:16;;;;;;;29.77;20.65;;;2.40;90.90;;;;;;5135984;28;20178;-80
2021/01/14 05:55:44;;;;;;;29.35;20.20;;;2.20;91.60;;;;;;5135332;28;20199;-80
2021/01/14 05:58:16;;;;;;;27.20;19.15;;;2.10;92.00;;;;;;5152528;28;20209;-80
2021/01/14 06:00:44;;;;;;;26.70;19.48;;;2.10;92.40;;;;;;5133809;28;20187;-80
2021/01/14 06:03:23;;;;;;;34.63;24.65;;;2.10;92.70;;;;;;5151934;28;20175;-80
2021/01/14 06:05:50;;;;;;;33.15;24.00;;;2.00;93.40;;;;;;5134806;28;20246;-80
2021/01/14 06:08:26;;;;;;;33.90;22.67;;;2.00;93.70;;;;;;5156291;27;20246;-81
2021/01/14 06:10:53;;;;;;;36.80;26.42;;;1.90;94.30;;;;;;5136837;27;20194;-80
2021/01/14 06:13:36;;;;;;;27.65;19.45;;;2.00;94.20;;;;;;5136143;27;20189;-80
2021/01/14 06:16:02;;;;;;;27.20;18.25;;;2.00;92.90;;;;;;5154856;27;20207;-80
2021/01/14 06:18:28;;;;;;;30.93;19.90;;;2.00;93.50;;;;;;5153816;27;20246;-81
2021/01/14 06:20:54;;;;;;;29.40;19.53;;;1.90;93.70;;;;;;5153939;27;20381;-80
2021/01/14 06:23:22;;;;;;;60.03;35.70;;;1.70;94.90;;;;;;5153138;27;20210;-80
2021/01/14 06:25:50;;;;;;;30.35;21.13;;;1.70;94.40;;;;;;5153436;27;20195;-80
2021/01/14 06:28:18;;;;;;;26.50;17.60;;;1.70;94.10;;;;;;5134525;27;20201;-80
2021/01/14 06:31:03;;;;;;;197.80;106.03;;;1.70;93.80;;;;;;5152814;27;20222;-80
2021/01/14 06:33:30;;;;;;;351.60;193.23;;;1.60;93.20;;;;;;5151530;27;20236;-80
2021/01/14 06:36:11;;;;;;;209.75;110.60;;;1.60;93.00;;;;;;5132974;27;20175;-80
2021/01/14 06:38:47;;;;;;;191.30;109.70;;;1.50;92.90;;;;;;5133527;27;20183;-80
2021/01/14 06:41:18;;;;;;;465.48;268.70;;;1.50;93.30;;;;;;5133591;27;20271;-80
2021/01/14 06:43:49;;;;;;;139.88;96.57;;;1.40;93.60;;;;;;5133879;27;20179;-80
2021/01/14 06:46:24;;;;;;;67.63;52.97;;;1.40;93.30;;;;;;5133880;27;20182;-80
2021/01/14 06:49:09;;;;;;;57.75;47.60;;;1.50;93.10;;;;;;5133968;27;20222;-81
2021/01/14 06:52:07;;;;;;;30.40;24.15;;;1.40;93.10;;;;;;5150808;27;20210;-80
2021/01/14 06:54:38;;;;;;;27.75;22.27;;;1.40;93.00;;;;;;5132212;27;20195;-80
2021/01/14 06:57:11;;;;;;;26.85;21.55;;;1.40;93.40;;;;;;5130308;27;20234;-80
2021/01/14 06:59:38;;;;;;;24.02;17.33;;;1.30;93.70;;;;;;5129105;28;20172;-80
2021/01/14 07:05:36;;;;;;;29.38;23.15;;;1.20;93.60;;;;;;5130395;28;20214;-80
2021/01/14 07:11:32;;;;;;;26.00;19.20;;;1.10;94.00;;;;;;5147840;27;20175;-80
2021/01/14 07:17:44;;;;;;;24.15;17.10;;;1.10;94.30;;;;;;5154354;27;20210;-82
2021/01/14 07:20:12;;;;;;;22.80;16.75;;;1.10;94.00;;;;;;5152325;27;20234;-81
2021/01/14 07:22:53;;;;;;;21.42;15.85;;;1.10;93.90;;;;;;5131569;27;20239;-79
2021/01/14 07:25:20;;;;;;;21.50;16.80;;;1.20;94.30;;;;;;5150054;27;20179;-81
2021/01/14 07:27:48;;;;;;;24.13;17.30;;;1.20;93.90;;;;;;5153770;27;20190;-81
2021/01/14 07:30:18;;;;;;;31.83;20.30;;;1.20;93.80;;;;;;5155633;27;20183;-81
2021/01/14 07:32:57;;;;;;;33.47;21.17;;;1.20;93.90;;;;;;5132726;27;20184;-80
2021/01/14 07:35:43;;;;;;;24.13;18.10;;;1.10;93.70;;;;;;5152074;27;20177;-79
2021/01/14 07:38:14;;;;;;;32.20;22.73;;;1.20;93.70;;;;;;5146678;27;20190;-80
2021/01/14 07:40:42;;;;;;;25.48;18.77;;;1.20;93.90;;;;;;5149897;27;20191;-80
2021/01/14 07:43:10;;;;;;;22.80;18.30;;;1.30;93.80;;;;;;5124487;28;20198;-80
2021/01/14 07:45:37;;;;;;;26.75;18.65;;;1.40;93.40;;;;;;5122209;27;20529;-80
2021/01/14 07:48:23;;;;;;;33.83;23.10;;;1.40;93.60;;;;;;5151991;27;20567;-80
2021/01/14 07:50:49;;;;;;;95.55;52.85;;;1.40;93.50;;;;;;5152387;27;20236;-80
2021/01/14 07:53:16;;;;;;;48.85;32.90;;;1.50;93.60;;;;;;5132874;27;20187;-80
2021/01/14 07:55:42;;;;;;;47.88;40.75;;;1.60;92.90;;;;;;5151938;27;20239;-80
2021/01/14 07:58:20;;;;;;;20.90;17.00;;;1.60;93.00;;;;;;5149242;27;20162;-80
2021/01/14 08:01:05;;;;;;;24.95;18.83;;;1.60;93.00;;;;;;5152040;27;20389;-80
2021/01/14 08:03:41;;;;;;;21.25;16.10;;;1.60;93.10;;;;;;5129904;27;20199;-81
2021/01/14 08:06:29;;;;;;;22.83;16.42;;;1.70;92.90;;;;;;5132960;27;20651;-81
2021/01/14 08:09:02;;;;;;;28.20;19.10;;;1.80;92.70;;;;;;5130454;27;20194;-81
2021/01/14 08:11:55;;;;;;;23.10;18.13;;;1.60;92.60;;;;;;5125317;27;20191;-81
2021/01/14 08:14:34;;;;;;;28.58;23.23;;;1.70;92.70;;;;;;5115884;27;20191;-81
2021/01/14 08:17:01;;;;;;;27.27;22.83;;;1.70;92.90;;;;;;5152485;27;20741;-81
2021/01/14 08:19:33;;;;;;;26.48;23.67;;;1.60;92.90;;;;;;5151283;27;20191;-79
2021/01/14 08:21:58;;;;;;;27.25;20.85;;;1.70;92.80;;;;;;5150180;27;20635;-79
2021/01/14 08:24:53;;;;;;;20.80;15.53;;;1.70;92.70;;;;;;5130890;27;20175;-80
2021/01/14 08:27:22;;;;;;;22.35;14.90;;;1.70;92.50;;;;;;5127114;27;20222;-79
2021/01/14 08:29:50;;;;;;;18.50;13.93;;;1.80;92.20;;;;;;5130544;27;20714;-80
2021/01/14 08:32:42;;;;;;;20.65;15.90;;;1.90;92.30;;;;;;5151615;27;20187;-80
2021/01/14 08:35:14;;;;;;;21.73;14.43;;;1.90;92.50;;;;;;5152239;27;20654;-80
2021/01/14 08:37:49;;;;;;;20.60;13.23;;;1.90;92.30;;;;;;5150899;27;20199;-81
2021/01/14 08:40:34;;;;;;;17.60;13.70;;;2.00;91.80;;;;;;5132722;27;20191;-81
2021/01/14 08:43:18;;;;;;;19.42;13.18;;;2.00;92.00;;;;;;5146720;27;20233;-80
2021/01/14 08:45:46;;;;;;;17.05;13.55;;;2.00;92.40;;;;;;5151594;27;20191;-80
2021/01/14 08:48:28;;;;;;;21.27;13.77;;;2.00;92.40;;;;;;5130019;27;20244;-80
2021/01/14 08:50:56;;;;;;;20.70;14.95;;;2.00;92.00;;;;;;5152088;27;20601;-80
2021/01/14 08:53:35;;;;;;;20.10;14.45;;;2.00;92.30;;;;;;5144474;27;20547;-81
2021/01/14 08:56:28;;;;;;;20.73;14.80;;;2.00;92.30;;;;;;5134713;28;20190;-81
2021/01/14 08:59:04;;;;;;;20.23;14.45;;;1.90;92.50;;;;;;5143248;28;20195;-81
2021/01/14 09:01:32;;;;;;;20.67;14.68;;;2.00;92.30;;;;;;5138584;27;20255;-81
2021/01/14 09:04:00;;;;;;;17.95;13.43;;;2.00;92.50;;;;;;5149655;27;20179;-81
2021/01/14 09:06:30;;;;;;;18.13;12.70;;;2.20;92.10;;;;;;5142606;28;20191;-80
2021/01/14 09:09:02;;;;;;;17.83;13.88;;;2.20;92.10;;;;;;5128328;28;20203;-80
2021/01/14 09:11:28;;;;;;;19.27;13.45;;;2.10;91.90;;;;;;5142772;27;20290;-79
2021/01/14 09:14:06;;;;;;;20.88;14.05;;;2.10;92.00;;;;;;5148829;27;20622;-79
2021/01/14 09:16:44;;;;;;;20.33;14.80;;;2.10;92.40;;;;;;5137766;27;20635;-81
2021/01/14 09:22:32;;;;;;;35.80;23.15;;;2.20;92.50;;;;;;5143577;28;20198;-79
2021/01/14 09:24:57;;;;;;;22.50;16.33;;;2.40;92.20;;;;;;5151056;27;20820;-80
2021/01/14 09:27:50;;;;;;;31.40;20.03;;;2.50;92.00;;;;;;5144877;27;20422;-80
2021/01/14 09:33:40;;;;;;;24.05;17.20;;;2.60;92.00;;;;;;5147764;28;20197;-81
2021/01/14 09:36:12;;;;;;;39.60;24.85;;;2.70;92.10;;;;;;5145434;27;20219;-81
2021/01/14 09:38:39;;;;;;;33.90;20.65;;;2.70;92.20;;;;;;5139711;27;20148;-81
2021/01/14 09:41:09;;;;;;;22.08;16.35;;;2.80;91.90;;;;;;5124611;28;20172;-82
2021/01/14 09:47:37;;;;;;;20.77;15.23;;;3.00;92.00;;;;;;5139185;27;20237;-80
2021/01/14 09:50:03;;;;;;;16.02;13.50;;;2.90;92.40;;;;;;5143182;28;20235;-80
2021/01/14 09:52:29;;;;;;;17.92;14.40;;;3.50;91.70;;;;;;5145067;28;20231;-80
2021/01/14 09:54:56;;;;;;;15.90;12.00;;;4.10;90.50;;;;;;5149256;27;20168;-81
2021/01/14 09:57:24;;;;;;;15.68;13.23;;;4.20;89.80;;;;;;5139610;27;20270;-80
2021/01/14 09:59:50;;;;;;;15.75;12.45;;;4.60;84.30;;;;;;5140584;28;20180;-80
2021/01/14 10:02:24;;;;;;;14.32;11.02;;;4.70;84.00;;;;;;5142548;28;20194;-81
2021/01/14 10:04:57;;;;;;;17.73;11.73;;;4.80;83.70;;;;;;5129928;28;20620;-80
2021/01/14 10:07:27;;;;;;;17.40;12.85;;;5.30;83.30;;;;;;5126570;27;20600;-80
2021/01/14 10:09:54;;;;;;;16.67;11.93;;;5.50;81.30;;;;;;5125775;27;20208;-80
2021/01/14 10:12:20;;;;;;;17.35;12.10;;;5.70;80.00;;;;;;5135044;27;20206;-80
2021/01/14 10:14:46;;;;;;;16.53;12.37;;;5.70;79.40;;;;;;5128984;27;20209;-80
2021/01/14 10:17:16;;;;;;;13.03;10.63;;;5.70;78.10;;;;;;5125206;28;20401;-80
2021/01/14 10:19:48;;;;;;;14.65;11.23;;;5.80;76.40;;;;;;5124447;28;20175;-80
2021/01/14 10:22:14;;;;;;;14.55;12.20;;;6.00;74.70;;;;;;5125086;28;20168;-78
2021/01/14 10:24:40;;;;;;;13.50;10.90;;;5.90;75.80;;;;;;5125237;28;20168;-79
2021/01/14 10:27:17;;;;;;;14.15;10.05;;;6.10;74.90;;;;;;5124097;28;20182;-79
2021/01/14 10:29:45;;;;;;;13.75;10.82;;;6.20;77.30;;;;;;5127328;28;20239;-79
2021/01/14 10:32:15;;;;;;;10.80;8.60;;;6.20;71.70;;;;;;5130000;27;20207;-81
2021/01/14 10:34:49;;;;;;;10.73;9.32;;;6.00;72.70;;;;;;5121346;28;20198;-79
2021/01/14 10:37:30;;;;;;;11.70;9.60;;;5.70;71.80;;;;;;5125118;28;20205;-79
2021/01/14 10:40:03;;;;;;;8.95;7.90;;;5.70;72.50;;;;;;5122161;28;20179;-79
2021/01/14 10:42:38;;;;;;;9.23;8.23;;;5.60;71.60;;;;;;5122823;28;20230;-80
2021/01/14 10:45:13;;;;;;;9.63;8.40;;;5.50;72.00;;;;;;5118307;28;20184;-79
2021/01/14 10:47:40;;;;;;;8.50;7.70;;;5.60;74.10;;;;;;5135213;27;20202;-79
2021/01/14 10:50:22;;;;;;;6.97;5.65;;;5.80;72.30;;;;;;5132461;27;20235;-80
2021/01/14 10:53:04;;;;;;;7.75;5.55;;;6.10;65.60;;;;;;5101854;28;20295;-80
2021/01/14 10:55:34;;;;;;;7.05;5.75;;;5.90;64.20;;;;;;5113946;28;20184;-79
2021/01/14 10:58:04;;;;;;;5.90;5.30;;;5.60;67.10;;;;;;5104881;28;20185;-79
2021/01/14 11:00:34;;;;;;;5.60;4.97;;;5.50;67.30;;;;;;5112935;28;20206;-80
2021/01/14 11:03:10;;;;;;;5.90;5.30;;;5.50;66.50;;;;;;5124876;28;20603;-79
2021/01/14 11:05:45;;;;;;;6.00;5.13;;;5.40;66.40;;;;;;5119407;27;20183;-79
2021/01/14 11:08:16;;;;;;;4.78;4.15;;;5.40;65.90;;;;;;5123800;28;20274;-79
2021/01/14 11:13:38;;;;;;;6.72;3.60;;;5.40;66.10;;;;;;5134543;27;20717;-79
2021/01/14 11:16:08;;;;;;;4.40;4.00;;;5.10;65.40;;;;;;5130684;27;20172;-79
2021/01/14 11:18:35;;;;;;;5.72;3.60;;;5.00;66.60;;;;;;5126929;27;20205;-79
2021/01/14 11:21:01;;;;;;;4.60;4.05;;;5.10;67.20;;;;;;5123065;27;20188;-80
2021/01/14 11:23:27;;;;;;;4.70;3.30;;;5.40;67.50;;;;;;5128795;27;20627;-79
2021/01/14 11:25:53;;;;;;;3.00;2.30;;;5.50;64.50;;;;;;5121380;28;20778;-79
2021/01/14 11:28:18;;;;;;;3.20;2.80;;;5.60;64.70;;;;;;5129684;27;20252;-79
2021/01/14 11:30:44;;;;;;;5.80;2.57;;;5.60;62.40;;;;;;5131088;27;20202;-79
2021/01/14 11:33:10;;;;;;;4.03;3.40;;;5.50;62.50;;;;;;5122490;28;20214;-78
2021/01/14 11:35:36;;;;;;;3.13;2.70;;;5.20;64.20;;;;;;5120865;28;20628;-81
2021/01/14 11:38:01;;;;;;;3.72;2.95;;;5.20;63.50;;;;;;5120480;28;20194;-78
2021/01/14 11:40:27;;;;;;;2.73;2.50;;;5.10;64.30;;;;;;5118077;28;20184;-79
2021/01/14 11:42:53;;;;;;;5.77;3.30;;;5.00;64.10;;;;;;5123196;28;20190;-79
2021/01/14 11:45:18;;;;;;;3.33;3.00;;;4.90;65.50;;;;;;5123404;28;20218;-80
2021/01/14 11:47:44;;;;;;;4.53;3.00;;;4.70;65.80;;;;;;5118999;28;20202;-80
2021/01/14 11:50:10;;;;;;;5.80;3.10;;;4.70;65.60;;;;;;5107476;27;20213;-80
2021/01/14 11:52:36;;;;;;;3.10;2.70;;;4.50;66.80;;;;;;5122111;28;20321;-80
2021/01/14 11:55:02;;;;;;;3.00;2.37;;;4.60;65.80;;;;;;5122205;28;20266;-80
2021/01/14 11:57:29;;;;;;;6.27;2.47;;;4.70;65.80;;;;;;5107498;28;20314;-80
2021/01/14 11:59:55;;;;;;;3.30;3.10;;;4.90;65.30;;;;;;5124744;27;20420;-79
2021/01/14 12:02:20;;;;;;;4.03;3.38;;;5.00;65.00;;;;;;5120532;28;20198;-80
2021/01/14 12:04:47;;;;;;;4.07;3.53;;;4.70;64.70;;;;;;5119618;28;20270;-80
2021/01/14 12:07:15;;;;;;;5.75;3.47;;;4.60;64.50;;;;;;5120833;28;20497;-80
2021/01/14 12:09:40;;;;;;;6.72;6.15;;;4.90;64.40;;;;;;5122644;28;20211;-81
2021/01/14 12:12:06;;;;;;;5.40;4.90;;;4.80;65.70;;;;;;5123859;28;20211;-79
2021/01/14 12:14:32;;;;;;;3.90;3.60;;;4.70;65.50;;;;;;5124530;28;20164;-79
2021/01/14 12:16:58;;;;;;;4.20;3.80;;;4.70;65.00;;;;;;5111877;28;20183;-80
2021/01/14 12:19:24;;;;;;;4.68;3.25;;;4.50;65.30;;;;;;5122267;28;20211;-79
2021/01/14 12:22:19;;;;;;;7.13;3.53;;;4.20;66.80;;;;;;5121880;27;20187;-79
2021/01/14 12:24:44;;;;;;;4.60;3.65;;;4.20;68.10;;;;;;5114832;28;20532;-79
2021/01/14 12:27:10;;;;;;;7.07;6.33;;;4.20;69.30;;;;;;5117304;28;20184;-79
2021/01/14 12:29:36;;;;;;;6.30;5.70;;;4.30;69.00;;;;;;5122495;28;20176;-81
2021/01/14 12:32:08;;;;;;;6.33;5.70;;;4.60;68.80;;;;;;5110819;28;20672;-78
2021/01/14 12:34:34;;;;;;;9.50;5.80;;;4.70;69.10;;;;;;5105820;28;20169;-79
2021/01/14 12:37:00;;;;;;;6.00;5.13;;;4.70;68.00;;;;;;5104192;28;20191;-81
2021/01/14 12:39:26;;;;;;;7.85;4.95;;;4.70;69.10;;;;;;5106071;28;20640;-79
2021/01/14 12:41:52;;;;;;;4.63;4.18;;;4.90;68.90;;;;;;5118299;27;20180;-81
2021/01/14 12:44:19;;;;;;;5.57;4.35;;;5.00;67.70;;;;;;5121515;28;20187;-79
2021/01/14 12:46:46;;;;;;;5.30;4.85;;;5.00;68.10;;;;;;5116391;28;20187;-80
2021/01/14 12:49:13;;;;;;;5.82;4.75;;;5.20;67.10;;;;;;5122903;28;20191;-81
2021/01/14 12:51:40;;;;;;;4.72;3.65;;;5.20;67.60;;;;;;5120095;28;20243;-79
2021/01/14 12:54:07;;;;;;;4.43;3.80;;;5.10;68.80;;;;;;5129409;28;20180;-80
2021/01/14 12:56:33;;;;;;;4.55;3.88;;;5.20;69.60;;;;;;5121534;28;20187;-80
2021/01/14 12:59:00;;;;;;;5.03;3.87;;;5.50;69.80;;;;;;5125067;28;20175;-80
2021/01/14 13:01:36;;;;;;;5.70;4.55;;;5.40;69.20;;;;;;5117828;28;20431;-81
2021/01/14 13:04:06;;;;;;;7.88;4.75;;;5.30;68.90;;;;;;5124599;28;20177;-80
2021/01/14 13:06:34;;;;;;;7.95;5.35;;;5.10;69.20;;;;;;5121252;28;20207;-81
2021/01/14 13:09:01;;;;;;;6.32;5.72;;;4.70;70.00;;;;;;5124716;28;20574;-80
2021/01/14 13:11:30;;;;;;;5.20;4.70;;;4.60;70.80;;;;;;5114420;28;20522;-79
2021/01/14 13:13:58;;;;;;;6.60;4.95;;;4.60;71.10;;;;;;5123531;28;20574;-80
2021/01/14 13:16:34;;;;;;;6.50;5.65;;;4.30;72.50;;;;;;5122979;28;20206;-80
2021/01/14 13:19:00;;;;;;;6.50;4.30;;;4.60;72.90;;;;;;5124689;28;20239;-80